x

Cape Elizabeth- 45nm Nw Of Aberdeen, Wa (46041) Wave Buoy

2:50 - Wed 28th Jun 2017 All times are PDT. -7 hours from GMT.

  • Sig Wave height 7.5ft
  • Swell Direction
  • Peak Period 9s
  • Average Period 7s
  • Wind
    13mph, 16mph gusts
  • Sea Temp 58°f
  • Air Temp 56°f
  • Sea Pressure 1016.1mb
  • Cape Elizabeth- 45nm Nw Of Aberdeen, Wa
  • Cape Elizabeth- 45nm Nw Of Aberdeen, Wa

More Historic Weather Station data

Upgrade to MSW Pro to gain access to the past 30 days of data for over 8000 Wavebouys and Weather Stations around the globe.

Join Pro

Comparision Forecast

View Surf forecast
   
mer. 06/28 2:50 7.5ft 9s 7s 13 16 mph 1016.1mb 58f 56f
1:50 7.5ft 9s 7s 13 16 mph 1016.3mb 57f 56f
12:50 7ft 9s 7s 13 18 mph 1016.5mb 57f 56f
mar. 06/27 11:50 7ft 8s 7s 13 16 mph 1016.5mb 57f 56f
10:50 6ft 9s 6s 11 16 mph 1016.5mb 57f 57f
9:50 6ft 8s 7s 9 13 mph 1016.5mb 57f 57f
8:50 6.5ft 8s 7s 11 13 mph 1016.1mb 57f 57f
7:50 6.5ft 9s 7s 7 11 mph 1015.9mb 57f 57f
6:50 7.5ft 9s 8s 7 9 mph 1016.1mb 57f 57f
5:50 7ft 9s 8s 9 11 mph 1016.4mb 58f 58f
4:50 6.5ft 8s 7s 4 9 mph 1016.7mb 58f 58f
3:50 6.5ft 9s 7s 7 7 mph 1016.8mb 57f 58f
2:50 7ft 9s 7s 4 4 mph 1017mb 56f 57f
1:50 6.5ft 9s 7s 4 7 mph 1017.3mb 55f 57f
12:50 7ft 9s 7s 7 7 mph 1017.6mb 54f 56f
11:50 7.5ft 9s 7s 7 9 mph 1017.7mb 55f 56f
10:50 6.5ft 9s 7s 7 9 mph 1017.6mb 55f 56f
9:50 6.5ft 8s 7s 7 9 mph 1017.5mb 56f 57f
8:50 6.5ft 9s 7s 4 4 mph 1017.5mb 55f 56f
7:50 7ft 9s 7s 2 4 mph 1017.3mb 55f 56f
6:50 6.5ft 8s 7s 7 9 mph 1017.1mb 56f 56f
5:50 6.5ft 8s 7s 4 7 mph 1016.9mb 56f 56f
4:50 6ft 8s 7s 4 7 mph 1016.7mb 56f 56f
3:50 6ft 10s 7s 9 11 mph 1016.8mb 56f 57f
2:50 7ft 8s 7s 9 11 mph 1016.7mb 56f 56f
1:50 7ft 8s 7s 9 13 mph 1016.7mb 56f 57f
12:50 6.5ft 9s 7s 11 16 mph 1017mb 56f 57f
lun. 06/26 11:50 6.5ft 7s 6s 9 11 mph 1017.1mb 57f 57f
10:50 6ft 9s 6s 9 11 mph 1017.6mb 56f 57f
9:50 6ft 8s 6s 13 18 mph 1017.3mb 56f 56f
8:50 6ft 8s 6s 16 18 mph 1016.9mb 56f 56f
7:50 7.5ft 8s 6s 18 22 mph 1016.5mb 56f 56f
6:50 6.5ft 8s 6s 20 25 mph 1016.3mb 56f 57f
5:50 7ft 8s 6s 18 20 mph 1016.6mb 56f 57f
4:50 6ft 9s 6s 16 20 mph 1017.1mb 56f 57f
3:50 7ft 8s 6s 16 20 mph 1017.5mb 56f 57f
2:50 6.5ft 9s 6s 18 20 mph 1017.3mb 56f 57f
1:50 7ft 8s 6s 16 18 mph 1017.1mb 56f 56f
12:50 6ft 9s 6s 16 20 mph 1016.8mb 56f 56f
11:50 6ft 8s 6s 16 18 mph 1017mb 56f 56f
10:50 6ft 9s 7s 11 13 mph 1017.1mb 56f 56f
9:50 6ft 8s 6s 16 20 mph 1016.1mb 56f 56f
8:50 6ft 8s 7s 16 18 mph 1015.9mb 56f 56f
7:50 6ft 8s 6s 16 18 mph 1015.4mb 56f 55f
6:50 6.5ft 8s 6s 16 18 mph 1015mb 56f 56f
5:50 6ft 9s 6s 18 20 mph 1015mb 56f 56f
4:50 6.5ft 10s 6s 16 20 mph 1015.3mb 56f 56f
3:50 6.5ft 10s 6s 16 18 mph 1014.8mb 56f 56f
2:50 6.5ft 8s 6s 13 18 mph 1015.3mb 56f 57f
1:50 7ft 8s 6s 16 18 mph 1014.7mb 56f 57f
12:50 6ft 8s 6s 11 13 mph 1015.1mb 56f 57f
dim. 06/25 11:50 6ft 8s 6s 9 11 mph 1015mb 57f 57f
10:50 6ft 7s 6s 7 9 mph 1014.2mb 57f 57f
9:50 6ft 7s 6s 11 16 mph 1013.6mb 57f 58f
8:50 6ft 7s 6s 13 16 mph 1013.3mb 57f 58f
7:50 6ft 7s 5s 20 25 mph 1013.1mb 58f 58f
6:50 5ft 7s 5s 20 25 mph 1013.1mb 58f 58f
5:50 4.5ft 7s 5s 18 22 mph 1012.8mb 57f 59f
4:50 4.5ft 6s 5s 16 18 mph 1012.9mb 58f 59f
3:50 3.5ft 6s 5s 16 18 mph 1013mb 58f 59f
2:50 3.5ft 15s 5s 16 18 mph 1012.9mb 58f 59f
1:50 3.5ft 15s 5s 13 16 mph 1012.9mb 58f 59f
12:50 3ft 15s 5s 13 13 mph 1013.1mb 57f 59f
11:50 3ft 16s 5s 11 11 mph 1013.2mb 57f 59f
10:50 2.5ft 5s 5s 9 9 mph 1013.3mb 56f 59f
9:50 2.5ft 15s 5s 7 9 mph 1013.2mb 56f 58f
8:50 2.5ft 16s 5s 7 7 mph 1013.1mb 56f 58f
7:50 2.5ft 16s 5s 4 7 mph 1012.9mb 56f 58f
6:50 2.5ft 16s 5s 7 7 mph 1013.1mb 56f 58f
5:50 2.5ft 15s 5s 7 7 mph 1013.1mb 56f 57f
4:50 2.5ft 16s 5s 4 7 mph 1013.1mb 56f 58f
3:50 2.5ft 16s 5s 7 9 mph 1013.1mb 57f 58f
2:50 2.5ft 16s 4s 9 11 mph 1013.5mb 57f 59f
1:50 2.5ft 16s 4s 13 13 mph 1013.5mb 57f 61f
12:50 3.5ft 16s 4s 16 18 mph 1013.5mb 57f 62f
sam. 06/24 11:50 3.5ft 15s 4s 16 18 mph 1013.7mb 57f 62f
10:50 3ft 16s 4s 18 20 mph 1013.9mb 57f 62f
9:50 2.5ft 16s 5s 18 20 mph 1013.9mb 57f 64f
8:50 2.5ft 16s 5s 16 18 mph 1014.3mb 59f 64f
7:50 2.5ft 16s 5s 16 16 mph 1014.7mb 59f 64f
6:50 2.5ft 16s 6s 16 16 mph 1015.3mb 60f 65f
5:50 2.5ft 16s 6s 11 13 mph 1016mb 60f 63f
4:50 2.5ft 16s 6s 11 13 mph 1016.6mb 60f 63f
3:50 2.5ft 16s 6s 9 11 mph 1017.2mb 60f 63f
2:50 2.5ft 7s 6s 9 11 mph 1017.6mb 61f 64f
1:50 2.5ft 16s 6s 7 7 mph 1018.2mb 62f 64f
12:50 2.5ft 6s 5s 7 7 mph 1018.9mb 62f 63f
11:50 3ft 16s 6s 4 4 mph 1019.3mb 60f 61f
10:50 3ft 16s 5s 2 2 mph 1019.6mb 59f 60f